Time;durP1;ratioP1;P1;durP2;ratioP2;P2;SDS_P1;SDS_P2;PMS_P1;PMS_P2;Temp;Humidity;BMP_temperature;BMP_pressure;BME280_temperature;BME280_humidity;BME280_pressure;Samples;Min_cycle;Max_cycle;Signal;HPM_P1;HPM_P2
2022/08/02 04:00:57;;;;;;;2.30;1.53;;;20.20;99.90;;;;;;5829620;23;20494;-76
2022/08/02 04:03:24;;;;;;;3.63;1.67;;;20.20;99.90;;;;;;5006503;28;20458;-76
2022/08/02 04:05:51;;;;;;;2.27;1.73;;;20.20;99.90;;;;;;5006043;28;20455;-76
2022/08/02 04:08:18;;;;;;;2.30;1.87;;;20.20;99.90;;;;;;5006798;28;20498;-76
2022/08/02 04:13:33;;;;;;;1.77;1.67;;;20.10;99.90;;;;;;5006452;28;20425;-76
2022/08/02 04:16:08;;;;;;;2.60;1.60;;;20.20;99.90;;;;;;5005786;28;20458;-76
2022/08/02 04:18:40;;;;;;;2.00;1.50;;;20.10;99.90;;;;;;5005544;28;20777;-72
2022/08/02 04:21:09;;;;;;;3.10;1.87;;;20.10;99.90;;;;;;5006406;28;20501;-73
2022/08/02 04:23:38;;;;;;;2.40;2.20;;;20.00;99.90;;;;;;5006664;28;20487;-73
2022/08/02 04:26:05;;;;;;;2.73;1.90;;;20.00;99.90;;;;;;5005782;28;21408;-72
2022/08/02 04:28:34;;;;;;;2.50;1.87;;;19.90;99.90;;;;;;5006814;28;20463;-72
2022/08/02 04:31:03;;;;;;;1.70;1.50;;;19.90;99.90;;;;;;5005738;28;20486;-72
2022/08/02 04:33:31;;;;;;;2.50;2.00;;;19.90;99.90;;;;;;5006338;28;20958;-73
2022/08/02 04:35:58;;;;;;;3.10;1.90;;;19.80;99.90;;;;;;5005385;28;20827;-73
2022/08/02 04:38:25;;;;;;;3.73;2.03;;;19.80;99.90;;;;;;5005926;28;20459;-72
2022/08/02 04:40:54;;;;;;;2.40;2.10;;;19.80;99.90;;;;;;5006680;28;20482;-77
2022/08/02 04:43:21;;;;;;;2.47;2.20;;;19.80;99.90;;;;;;5006513;28;20466;-76
2022/08/02 04:45:49;;;;;;;2.67;1.60;;;19.80;99.90;;;;;;5005778;28;20458;-77
2022/08/02 04:48:18;;;;;;;3.37;2.20;;;19.80;99.90;;;;;;5006182;28;20502;-76
2022/08/02 04:50:44;;;;;;;2.80;2.30;;;19.90;99.90;;;;;;5005769;28;20486;-76
2022/08/02 04:53:11;;;;;;;2.53;2.33;;;19.90;99.90;;;;;;5006230;28;20467;-77
2022/08/02 04:55:38;;;;;;;4.10;2.27;;;19.90;99.90;;;;;;5005553;28;20981;-78
2022/08/02 04:58:05;;;;;;;2.30;2.10;;;19.90;99.90;;;;;;5005938;28;20961;-77
2022/08/02 05:00:32;;;;;;;2.40;1.90;;;19.90;99.90;;;;;;5006034;28;20478;-77
2022/08/02 05:03:00;;;;;;;3.33;2.33;;;19.90;99.90;;;;;;5006475;28;20439;-77
2022/08/02 05:05:28;;;;;;;2.70;2.10;;;19.90;99.90;;;;;;5005297;28;20935;-77
2022/08/02 05:07:55;;;;;;;2.57;2.33;;;19.90;99.90;;;;;;5006336;28;20485;-76
2022/08/02 05:10:22;;;;;;;3.00;2.07;;;19.90;99.90;;;;;;5006691;28;20466;-77
2022/08/02 05:12:49;;;;;;;3.80;2.00;;;19.90;99.90;;;;;;5006435;28;20824;-77
2022/08/02 05:15:17;;;;;;;3.00;1.90;;;19.90;99.90;;;;;;5005533;28;20841;-76
2022/08/02 05:17:45;;;;;;;3.40;2.20;;;19.90;99.90;;;;;;5005887;28;20509;-77
2022/08/02 05:20:14;;;;;;;2.27;1.80;;;19.90;99.90;;;;;;5005898;28;20459;-72
2022/08/02 05:22:42;;;;;;;3.60;2.20;;;19.90;99.90;;;;;;5006366;28;20466;-69
2022/08/02 05:25:10;;;;;;;5.27;2.60;;;19.90;99.90;;;;;;5004567;28;20465;-76
2022/08/02 05:27:37;;;;;;;3.90;2.63;;;20.00;99.90;;;;;;5005944;28;20499;-76
2022/08/02 05:30:05;;;;;;;3.60;2.50;;;20.00;99.90;;;;;;5005443;28;20455;-77
2022/08/02 05:32:31;;;;;;;4.83;2.63;;;20.00;99.90;;;;;;5004025;28;20478;-77
2022/08/02 05:35:00;;;;;;;5.20;2.70;;;20.00;99.90;;;;;;5004160;28;20467;-76
2022/08/02 05:37:27;;;;;;;2.57;2.20;;;20.00;99.90;;;;;;5004823;28;20455;-77
2022/08/02 05:39:55;;;;;;;3.57;2.00;;;20.00;99.90;;;;;;5005021;28;20465;-77
2022/08/02 05:42:22;;;;;;;2.87;2.37;;;20.10;99.90;;;;;;5004817;28;20483;-77
2022/08/02 05:44:49;;;;;;;3.00;2.50;;;20.10;99.90;;;;;;5003410;28;21422;-77
2022/08/02 05:47:15;;;;;;;3.33;2.73;;;20.10;99.90;;;;;;5004525;28;20486;-76
2022/08/02 05:49:42;;;;;;;3.23;2.60;;;20.10;99.90;;;;;;5004836;28;20474;-77
2022/08/02 05:52:15;;;;;;;3.30;3.00;;;20.10;99.90;;;;;;5004438;28;20482;-77
2022/08/02 05:54:49;;;;;;;2.57;2.37;;;20.10;99.90;;;;;;5004096;28;21142;-77
2022/08/02 05:57:33;;;;;;;4.10;2.53;;;20.10;99.90;;;;;;5004349;28;20942;-77
2022/08/02 06:00:08;;;;;;;5.50;2.50;;;20.10;99.90;;;;;;5004696;28;20466;-77
2022/08/02 06:02:48;;;;;;;4.57;2.83;;;20.00;99.90;;;;;;5004075;28;20874;-73
2022/08/02 06:05:18;;;;;;;4.10;3.20;;;20.10;99.90;;;;;;5004565;28;20450;-73
2022/08/02 06:07:46;;;;;;;5.03;3.03;;;20.10;99.90;;;;;;5003251;28;20502;-72
2022/08/02 06:10:15;;;;;;;7.27;2.90;;;20.10;99.90;;;;;;5005143;28;20470;-74
2022/08/02 06:12:49;;;;;;;4.00;2.50;;;20.10;99.90;;;;;;5005112;28;20980;-76
2022/08/02 06:15:17;;;;;;;6.83;2.73;;;20.10;99.90;;;;;;5005053;28;20435;-77
2022/08/02 06:17:45;;;;;;;5.23;3.30;;;20.20;99.90;;;;;;5005532;28;20464;-76
2022/08/02 06:20:13;;;;;;;5.63;2.83;;;20.20;99.90;;;;;;5004303;28;20469;-76
2022/08/02 06:22:42;;;;;;;3.23;2.90;;;20.20;99.90;;;;;;5005110;28;20946;-77
2022/08/02 06:25:10;;;;;;;5.60;3.30;;;20.20;99.90;;;;;;5006283;28;20521;-77
2022/08/02 06:27:38;;;;;;;3.80;3.30;;;20.30;99.90;;;;;;5009064;28;21198;-77
2022/08/02 06:30:07;;;;;;;8.33;3.10;;;20.20;99.90;;;;;;5008969;28;20549;-76
2022/08/02 06:32:34;;;;;;;7.00;3.77;;;20.30;99.90;;;;;;5008715;28;20483;-77
2022/08/02 06:35:01;;;;;;;6.40;3.93;;;20.30;99.90;;;;;;5007970;28;20464;-77
2022/08/02 06:37:36;;;;;;;5.23;3.10;;;20.20;99.90;;;;;;5008946;28;20454;-77
2022/08/02 06:40:11;;;;;;;6.10;4.00;;;20.30;99.90;;;;;;5009015;28;20458;-77
2022/08/02 06:42:48;;;;;;;4.00;3.50;;;20.30;99.90;;;;;;5008712;28;20468;-77
2022/08/02 06:45:16;;;;;;;3.97;2.97;;;20.30;99.90;;;;;;5007918;28;20461;-77
2022/08/02 06:47:43;;;;;;;4.87;3.20;;;20.40;99.90;;;;;;5009072;28;20490;-77
2022/08/02 06:50:10;;;;;;;5.60;3.40;;;20.40;99.90;;;;;;5008659;28;20465;-77
2022/08/02 06:52:37;;;;;;;7.40;5.20;;;20.40;99.90;;;;;;5008514;28;20810;-77
2022/08/02 06:55:06;;;;;;;6.50;5.17;;;20.40;99.90;;;;;;5008254;28;20458;-76
2022/08/02 06:57:34;;;;;;;5.90;4.00;;;20.50;99.90;;;;;;5008665;28;20466;-78
2022/08/02 07:00:03;;;;;;;8.03;5.73;;;20.50;99.90;;;;;;5008115;28;20973;-77
2022/08/02 07:02:32;;;;;;;7.90;5.40;;;20.40;99.90;;;;;;5008104;28;20574;-77
2022/08/02 07:04:59;;;;;;;5.20;4.70;;;20.50;99.90;;;;;;5007612;28;21207;-77
2022/08/02 07:07:27;;;;;;;6.97;4.93;;;20.50;99.90;;;;;;5007167;28;20487;-77
2022/08/02 07:09:54;;;;;;;8.13;5.00;;;20.50;99.90;;;;;;5008038;28;20455;-77
2022/08/02 07:12:21;;;;;;;7.43;5.53;;;20.50;99.90;;;;;;5007999;28;20475;-77
2022/08/02 07:14:48;;;;;;;6.10;4.80;;;20.60;99.90;;;;;;5007611;28;20469;-78
2022/08/02 07:17:15;;;;;;;6.23;5.47;;;20.70;99.90;;;;;;5008027;28;20459;-78
2022/08/02 07:19:43;;;;;;;7.20;5.90;;;20.70;99.90;;;;;;5008378;28;20469;-78
2022/08/02 07:22:11;;;;;;;7.63;6.07;;;20.70;99.90;;;;;;5008135;28;20482;-78
2022/08/02 07:24:38;;;;;;;10.67;6.23;;;20.70;99.90;;;;;;5007381;28;20493;-78
2022/08/02 07:27:07;;;;;;;5.13;4.63;;;20.80;99.90;;;;;;5007509;28;20520;-78
2022/08/02 07:29:34;;;;;;;7.00;4.93;;;20.80;99.90;;;;;;5008000;28;20477;-78
2022/08/02 07:32:01;;;;;;;6.90;6.00;;;20.80;99.90;;;;;;5007664;28;20485;-78
2022/08/02 07:34:28;;;;;;;8.10;6.10;;;20.90;99.90;;;;;;5007140;28;20455;-78
2022/08/02 07:36:56;;;;;;;9.07;6.90;;;20.90;99.90;;;;;;5006437;28;20542;-78
2022/08/02 07:39:23;;;;;;;8.20;6.27;;;21.00;99.90;;;;;;5007482;28;20966;-78
2022/08/02 07:41:51;;;;;;;6.30;4.90;;;21.00;99.90;;;;;;5007508;28;20479;-78
2022/08/02 07:44:18;;;;;;;7.83;5.60;;;21.00;99.90;;;;;;5007224;28;20662;-78
2022/08/02 07:46:45;;;;;;;6.73;5.43;;;21.10;99.90;;;;;;5007819;28;20465;-78
2022/08/02 07:49:17;;;;;;;5.53;5.00;;;21.10;99.90;;;;;;5007794;28;20576;-79
2022/08/02 07:51:44;;;;;;;6.83;4.93;;;21.20;99.90;;;;;;5007450;28;20478;-78
2022/08/02 07:54:12;;;;;;;6.80;5.63;;;21.30;99.90;;;;;;5006319;28;20545;-78
2022/08/02 07:56:39;;;;;;;7.67;5.70;;;21.40;99.90;;;;;;5007104;28;20466;-76
2022/08/02 07:59:06;;;;;;;7.33;5.33;;;21.40;99.90;;;;;;5005770;28;20459;-77
2022/08/02 08:01:33;;;;;;;7.90;4.67;;;21.40;99.90;;;;;;5007037;28;20535;-76
2022/08/02 08:04:00;;;;;;;9.07;5.60;;;21.50;99.90;;;;;;5006396;28;21120;-77
2022/08/02 08:06:27;;;;;;;7.33;5.17;;;21.60;99.90;;;;;;5006436;28;20458;-76
2022/08/02 08:08:54;;;;;;;7.67;5.93;;;21.60;99.90;;;;;;5007396;28;20486;-76
2022/08/02 08:11:23;;;;;;;7.43;5.40;;;21.70;99.90;;;;;;5005882;28;20474;-76
2022/08/02 08:13:49;;;;;;;5.30;4.80;;;21.80;99.90;;;;;;5007069;28;20443;-76
2022/08/02 08:16:17;;;;;;;6.53;5.60;;;21.80;99.90;;;;;;5006110;28;20468;-76
2022/08/02 08:18:44;;;;;;;13.43;5.00;;;21.90;99.90;;;;;;5007257;28;20459;-76
2022/08/02 08:21:11;;;;;;;6.07;5.07;;;21.90;99.90;;;;;;5006727;28;20498;-75
2022/08/02 08:23:37;;;;;;;9.87;5.27;;;22.00;99.90;;;;;;5006622;28;20462;-72
2022/08/02 08:26:05;;;;;;;5.67;5.17;;;22.00;99.90;;;;;;5005783;28;20981;-74
2022/08/02 08:28:34;;;;;;;6.27;4.43;;;22.10;99.90;;;;;;5006792;28;20517;-72
2022/08/02 08:31:01;;;;;;;6.93;5.40;;;22.20;99.90;;;;;;5006842;28;20493;-73
2022/08/02 08:33:28;;;;;;;7.10;5.20;;;22.30;99.90;;;;;;5006833;28;20465;-73
2022/08/02 08:35:55;;;;;;;7.40;5.13;;;22.30;99.90;;;;;;5005801;28;20565;-73
2022/08/02 08:38:22;;;;;;;5.00;4.30;;;22.40;99.90;;;;;;5006370;28;20534;-73
2022/08/02 08:40:49;;;;;;;5.57;4.47;;;22.40;99.90;;;;;;5006454;28;20569;-74
2022/08/02 08:43:16;;;;;;;6.73;5.40;;;22.60;99.90;;;;;;5006275;28;20477;-73
2022/08/02 08:45:45;;;;;;;5.67;4.37;;;22.60;99.90;;;;;;5005660;28;20459;-74
2022/08/02 08:48:14;;;;;;;6.13;4.40;;;22.70;99.90;;;;;;5005859;28;20501;-74
2022/08/02 08:50:47;;;;;;;11.53;4.60;;;22.70;99.90;;;;;;5006405;28;21240;-73
2022/08/02 08:53:14;;;;;;;9.67;4.67;;;22.80;99.90;;;;;;5005879;28;20817;-73
2022/08/02 08:55:41;;;;;;;6.93;4.60;;;22.90;99.90;;;;;;5005680;28;20469;-74
2022/08/02 08:58:08;;;;;;;8.07;4.80;;;22.90;99.90;;;;;;5006444;28;20455;-74
2022/08/02 09:00:36;;;;;;;7.90;4.40;;;23.00;99.90;;;;;;5005923;28;20496;-74
2022/08/02 09:03:05;;;;;;;8.43;4.77;;;23.00;99.90;;;;;;5006219;28;20443;-74
2022/08/02 09:05:34;;;;;;;7.90;4.50;;;23.10;99.90;;;;;;5004971;28;20458;-69
2022/08/02 09:08:01;;;;;;;5.07;4.27;;;23.20;99.90;;;;;;5005863;28;20491;-69
2022/08/02 09:10:33;;;;;;;7.47;4.23;;;23.30;99.90;;;;;;5004960;28;20949;-71
2022/08/02 09:13:08;;;;;;;5.67;4.30;;;23.40;99.90;;;;;;5006038;28;20447;-69
2022/08/02 09:15:35;;;;;;;7.63;4.80;;;23.40;99.90;;;;;;5005473;28;20458;-69
2022/08/02 09:18:05;;;;;;;5.00;4.50;;;23.50;99.90;;;;;;5005981;28;20442;-69
2022/08/02 09:20:33;;;;;;;5.57;4.10;;;23.60;99.90;;;;;;5005874;28;20475;-70
2022/08/02 09:23:07;;;;;;;5.67;4.80;;;23.70;99.90;;;;;;5005620;28;20451;-68
2022/08/02 09:25:34;;;;;;;7.33;4.70;;;23.70;99.90;;;;;;5005087;28;20462;-69
2022/08/02 09:28:03;;;;;;;5.40;4.90;;;23.80;99.90;;;;;;5005437;28;20462;-69
2022/08/02 09:30:30;;;;;;;4.90;3.93;;;23.90;99.90;;;;;;5005588;28;20533;-69
2022/08/02 09:32:57;;;;;;;5.93;5.20;;;24.00;99.90;;;;;;5005377;28;21382;-69
2022/08/02 09:35:38;;;;;;;7.27;5.33;;;24.10;99.90;;;;;;5005381;28;20462;-70
2022/08/02 09:38:10;;;;;;;17.27;5.93;;;24.10;99.90;;;;;;5005521;28;20443;-70
2022/08/02 09:40:37;;;;;;;6.90;4.70;;;24.10;99.90;;;;;;5005746;28;20474;-69
2022/08/02 09:43:05;;;;;;;5.63;4.40;;;24.20;99.90;;;;;;5005693;28;20573;-70
2022/08/02 09:45:33;;;;;;;6.27;4.87;;;24.20;99.90;;;;;;5004863;28;20459;-70
2022/08/02 09:48:00;;;;;;;5.40;4.40;;;24.30;99.90;;;;;;5005699;28;20454;-70
2022/08/02 09:50:27;;;;;;;7.00;4.37;;;24.50;99.90;;;;;;5005295;28;20986;-70
2022/08/02 09:52:57;;;;;;;8.70;4.70;;;24.60;99.90;;;;;;5005683;28;20454;-68
2022/08/02 09:55:25;;;;;;;10.00;5.33;;;24.70;99.90;;;;;;5005005;28;20458;-73
2022/08/02 09:57:52;;;;;;;6.30;4.53;;;24.80;99.90;;;;;;5006189;28;20463;-73
2022/08/02 10:00:19;;;;;;;5.63;4.37;;;24.90;99.90;;;;;;5007429;28;20469;-73
2022/08/02 10:03:06;;;;;;;6.47;4.33;;;25.00;99.90;;;;;;5009533;28;20520;-70
2022/08/02 10:05:46;;;;;;;4.07;3.67;;;25.00;99.90;;;;;;5008833;28;20524;-68
2022/08/02 10:08:15;;;;;;;9.57;4.50;;;25.10;99.90;;;;;;5009533;28;20447;-68
2022/08/02 10:10:42;;;;;;;6.87;4.30;;;25.10;99.90;;;;;;5008645;28;20475;-69
2022/08/02 10:13:09;;;;;;;7.70;5.27;;;25.20;99.90;;;;;;5009380;28;20459;-69
2022/08/02 10:15:37;;;;;;;4.67;4.20;;;25.40;99.90;;;;;;5009538;28;20461;-79
2022/08/02 10:18:05;;;;;;;9.20;4.70;;;25.50;99.90;;;;;;5010212;28;20462;-70
2022/08/02 10:20:35;;;;;;;4.20;3.77;;;25.60;99.90;;;;;;5012420;28;20474;-78
2022/08/02 10:23:03;;;;;;;5.90;4.10;;;25.70;99.90;;;;;;5009631;28;20454;-78
2022/08/02 10:25:32;;;;;;;6.70;4.00;;;25.70;99.90;;;;;;5008466;28;20454;-79
2022/08/02 10:27:59;;;;;;;6.37;4.37;;;25.90;99.90;;;;;;5009854;28;20462;-79
2022/08/02 10:30:28;;;;;;;5.53;4.07;;;25.90;99.90;;;;;;5009871;28;20604;-79
2022/08/02 10:32:59;;;;;;;4.90;4.40;;;26.00;99.90;;;;;;5010344;28;20874;-78
2022/08/02 10:35:26;;;;;;;4.90;3.87;;;26.10;99.90;;;;;;5008716;28;20438;-79
2022/08/02 10:37:56;;;;;;;7.10;3.90;;;26.10;99.90;;;;;;5009646;28;20551;-78
2022/08/02 10:40:25;;;;;;;3.53;3.23;;;26.20;99.90;;;;;;5009067;28;20450;-78
2022/08/02 10:42:54;;;;;;;3.60;3.30;;;26.10;99.90;;;;;;5009172;28;20542;-78
2022/08/02 10:45:22;;;;;;;5.47;3.50;;;26.20;99.90;;;;;;5011821;28;20965;-79
2022/08/02 10:48:02;;;;;;;5.20;3.73;;;26.20;99.90;;;;;;5012784;28;20470;-79
2022/08/02 10:50:54;;;;;;;4.17;3.50;;;26.30;99.90;;;;;;5009869;28;20502;-78
2022/08/02 10:53:26;;;;;;;6.60;3.50;;;26.40;99.90;;;;;;5009148;28;20462;-79
2022/08/02 10:55:54;;;;;;;4.20;3.30;;;26.40;99.90;;;;;;5008412;28;20541;-78
2022/08/02 10:58:25;;;;;;;3.63;3.33;;;26.40;99.90;;;;;;5009438;28;20454;-78
2022/08/02 11:00:52;;;;;;;5.60;4.03;;;26.60;99.90;;;;;;5009330;28;20498;-78
2022/08/02 11:03:39;;;;;;;4.17;3.03;;;26.70;99.90;;;;;;5010293;28;20458;-79
2022/08/02 11:06:07;;;;;;;3.40;3.10;;;26.80;99.90;;;;;;5008393;28;20843;-78
2022/08/02 11:08:34;;;;;;;4.00;3.00;;;26.80;99.90;;;;;;5008715;28;20466;-78
2022/08/02 11:11:14;;;;;;;3.10;2.80;;;26.90;99.90;;;;;;5007405;28;20476;-78
2022/08/02 11:14:02;;;;;;;5.33;2.90;;;27.00;99.90;;;;;;5008021;28;20470;-77
2022/08/02 11:17:04;;;;;;;7.67;2.97;;;27.10;99.90;;;;;;5008288;28;20450;-78
2022/08/02 11:19:32;;;;;;;5.67;2.60;;;27.30;99.90;;;;;;5002700;28;20517;-79
2022/08/02 11:22:04;;;;;;;5.87;2.50;;;27.30;99.90;;;;;;5009219;28;20482;-79
2022/08/02 11:24:33;;;;;;;8.00;2.83;;;27.40;99.90;;;;;;5006587;28;20463;-78
2022/08/02 11:27:01;;;;;;;4.10;2.90;;;27.50;99.90;;;;;;5007394;28;20458;-79
2022/08/02 11:29:38;;;;;;;6.13;3.00;;;27.60;99.90;;;;;;5007271;28;20549;-78
2022/08/02 11:32:06;;;;;;;2.70;2.50;;;27.60;99.90;;;;;;5007846;28;20510;-78
2022/08/02 11:34:33;;;;;;;4.33;3.00;;;27.50;99.90;;;;;;5006283;28;20518;-76
2022/08/02 11:37:01;;;;;;;5.10;2.50;;;27.50;99.90;;;;;;5006014;28;20467;-77
2022/08/02 11:39:28;;;;;;;3.20;2.40;;;27.50;99.90;;;;;;5007087;28;20462;-76
2022/08/02 11:41:57;;;;;;;3.47;2.53;;;27.60;99.90;;;;;;5006952;28;20478;-76
2022/08/02 11:44:25;;;;;;;4.17;2.70;;;27.60;99.90;;;;;;5006180;28;20454;-77
2022/08/02 11:46:59;;;;;;;2.97;2.67;;;27.60;99.90;;;;;;5006293;28;20473;-76
2022/08/02 11:49:27;;;;;;;5.60;2.83;;;27.60;99.90;;;;;;5006041;28;20867;-76
2022/08/02 11:51:56;;;;;;;3.00;2.70;;;27.50;99.90;;;;;;5006716;28;20549;-76
2022/08/02 11:54:27;;;;;;;4.20;2.90;;;27.60;99.90;;;;;;5005740;28;20487;-76
2022/08/02 11:56:54;;;;;;;3.87;2.70;;;27.60;99.90;;;;;;5006409;28;20455;-75
2022/08/02 11:59:21;;;;;;;4.17;2.73;;;27.50;99.90;;;;;;5006022;28;20947;-75
2022/08/02 12:01:48;;;;;;;3.60;2.50;;;27.50;99.90;;;;;;5005813;28;20490;-75
2022/08/02 12:04:20;;;;;;;5.43;3.30;;;27.40;99.90;;;;;;5005405;28;20770;-75
2022/08/02 12:06:58;;;;;;;3.50;2.90;;;27.50;99.90;;;;;;5006606;28;20463;-76
2022/08/02 12:09:26;;;;;;;2.97;2.37;;;27.50;99.90;;;;;;5005990;28;20492;-76
2022/08/02 12:11:54;;;;;;;2.50;2.30;;;27.50;99.90;;;;;;5006153;28;20487;-76
2022/08/02 12:14:21;;;;;;;3.20;2.90;;;27.60;99.90;;;;;;5006000;28;20458;-76
2022/08/02 12:19:35;;;;;;;4.10;2.50;;;27.80;99.90;;;;;;5007138;28;20437;-67
2022/08/02 12:22:14;;;;;;;3.90;2.93;;;27.90;99.90;;;;;;5006834;28;20482;-67
2022/08/02 12:24:43;;;;;;;2.70;2.50;;;27.90;99.90;;;;;;5006184;28;20510;-75
2022/08/02 12:27:10;;;;;;;3.30;2.80;;;28.00;99.90;;;;;;5006682;28;20465;-70
2022/08/02 12:29:41;;;;;;;3.57;2.70;;;28.20;99.90;;;;;;5006733;28;20501;-69
2022/08/02 12:32:08;;;;;;;4.17;2.90;;;28.30;99.90;;;;;;5006888;28;20518;-70
2022/08/02 12:34:36;;;;;;;2.80;2.60;;;28.30;99.90;;;;;;5006156;28;20473;-70
2022/08/02 12:37:06;;;;;;;5.90;2.93;;;28.30;99.90;;;;;;5006397;28;20549;-70
2022/08/02 12:39:39;;;;;;;3.70;2.70;;;28.20;99.90;;;;;;5006792;28;20458;-68
2022/08/02 12:42:08;;;;;;;3.50;3.20;;;28.20;99.90;;;;;;5008062;28;20781;-67
2022/08/02 12:44:37;;;;;;;3.00;2.60;;;28.30;99.90;;;;;;5007466;28;20582;-68
2022/08/02 12:47:06;;;;;;;2.87;2.63;;;28.20;99.90;;;;;;5008007;28;20454;-67
2022/08/02 12:49:34;;;;;;;3.87;2.63;;;28.20;99.90;;;;;;5007324;28;20498;-66
2022/08/02 12:52:02;;;;;;;5.53;2.50;;;28.20;99.90;;;;;;5006410;28;20471;-67
2022/08/02 12:54:32;;;;;;;10.83;3.20;;;28.20;99.90;;;;;;5005688;28;20562;-70
2022/08/02 12:57:09;;;;;;;4.00;3.03;;;28.20;99.90;;;;;;5006127;28;20947;-73
2022/08/02 12:59:38;;;;;;;3.37;2.53;;;28.30;99.90;;;;;;5004955;28;21009;-68
2022/08/02 13:02:06;;;;;;;4.03;2.50;;;28.30;99.90;;;;;;5006383;28;20567;-69
2022/08/02 13:04:33;;;;;;;3.60;2.83;;;28.40;99.90;;;;;;5006288;28;20473;-78
2022/08/02 13:07:02;;;;;;;6.60;2.63;;;28.40;99.90;;;;;;5007087;28;20463;-78
2022/08/02 13:09:35;;;;;;;3.90;2.90;;;28.50;99.90;;;;;;5004912;28;20490;-78
2022/08/02 13:12:02;;;;;;;2.83;2.53;;;28.50;99.90;;;;;;5004310;28;20475;-78
2022/08/02 13:14:28;;;;;;;2.50;2.30;;;28.60;99.90;;;;;;5004343;28;20459;-78
2022/08/02 13:16:55;;;;;;;2.73;2.47;;;28.60;99.90;;;;;;5004602;28;20466;-79
2022/08/02 13:19:22;;;;;;;2.67;2.47;;;28.60;99.90;;;;;;5005378;28;20546;-79
2022/08/02 13:21:49;;;;;;;5.70;2.50;;;28.70;99.90;;;;;;5005887;28;20478;-78
2022/08/02 13:24:18;;;;;;;2.27;2.07;;;28.80;99.90;;;;;;5004762;28;20546;-79
2022/08/02 13:26:45;;;;;;;5.07;2.40;;;28.80;99.90;;;;;;5006122;28;20818;-79
2022/08/02 13:29:12;;;;;;;3.53;2.03;;;28.90;99.90;;;;;;5006524;28;20465;-78
2022/08/02 13:31:39;;;;;;;2.33;1.93;;;29.00;99.90;;;;;;5006439;28;20486;-78
2022/08/02 13:34:08;;;;;;;3.20;2.03;;;29.00;99.90;;;;;;5005327;28;20827;-79
2022/08/02 13:36:36;;;;;;;3.53;2.20;;;29.10;99.90;;;;;;5006303;28;20469;-79
2022/08/02 13:39:04;;;;;;;3.00;2.40;;;29.20;99.90;;;;;;5006624;28;20460;-79
2022/08/02 13:41:32;;;;;;;2.90;1.93;;;29.30;99.90;;;;;;5006146;28;20474;-79
2022/08/02 13:43:59;;;;;;;3.63;2.30;;;29.30;99.90;;;;;;5005922;28;20469;-79
2022/08/02 13:46:26;;;;;;;3.20;2.20;;;29.40;99.90;;;;;;5006439;28;21085;-78
2022/08/02 13:48:53;;;;;;;4.13;2.33;;;29.40;99.90;;;;;;5006143;28;20951;-78
2022/08/02 13:51:20;;;;;;;3.83;2.20;;;29.50;99.90;;;;;;5005877;28;20509;-79
2022/08/02 13:53:47;;;;;;;3.37;2.20;;;29.50;99.90;;;;;;5006588;28;20471;-79
2022/08/02 13:56:14;;;;;;;3.27;2.23;;;29.50;99.90;;;;;;5006837;28;20454;-79
2022/08/02 13:58:42;;;;;;;2.97;2.27;;;29.50;99.90;;;;;;5011122;28;20458;-79
2022/08/02 14:01:09;;;;;;;3.60;2.23;;;29.50;99.90;;;;;;5011560;28;20542;-80
2022/08/02 14:03:35;;;;;;;3.83;2.30;;;29.60;99.90;;;;;;5011109;28;20468;-79
2022/08/02 14:06:03;;;;;;;3.40;2.37;;;29.60;99.90;;;;;;5009001;28;20545;-80
2022/08/02 14:08:30;;;;;;;4.27;2.43;;;29.60;99.90;;;;;;5010167;28;20469;-79
2022/08/02 14:10:56;;;;;;;4.13;2.10;;;29.60;99.90;;;;;;5012343;28;20577;-79
2022/08/02 14:13:24;;;;;;;3.60;2.30;;;29.70;99.90;;;;;;5012062;28;20977;-79
2022/08/02 14:15:52;;;;;;;2.83;2.43;;;29.70;99.90;;;;;;5010481;28;20818;-79
2022/08/02 14:18:19;;;;;;;3.57;2.30;;;29.70;99.90;;;;;;5010103;28;21474;-79
2022/08/02 14:20:46;;;;;;;4.40;1.97;;;29.70;99.90;;;;;;5011336;28;20474;-79
2022/08/02 14:23:13;;;;;;;3.57;2.40;;;29.80;99.90;;;;;;5010900;28;20458;-79
2022/08/02 14:25:40;;;;;;;4.17;2.30;;;29.90;99.90;;;;;;5010449;28;20457;-80
2022/08/02 14:28:07;;;;;;;2.70;2.13;;;29.90;99.90;;;;;;5010771;28;20462;-79
2022/08/02 14:30:34;;;;;;;2.90;2.20;;;30.00;99.90;;;;;;5009239;28;20513;-78
2022/08/02 14:33:02;;;;;;;2.40;1.70;;;30.10;99.90;;;;;;5006121;28;20467;-79
2022/08/02 14:35:29;;;;;;;2.50;2.20;;;30.10;99.90;;;;;;5005320;28;20463;-79
2022/08/02 14:37:56;;;;;;;3.03;2.20;;;30.10;99.90;;;;;;5005831;28;20454;-79
2022/08/02 14:40:23;;;;;;;3.90;2.50;;;30.10;99.90;;;;;;5005758;28;20459;-78
2022/08/02 14:42:51;;;;;;;3.80;2.30;;;30.10;99.90;;;;;;5005744;28;20963;-78
2022/08/02 14:45:20;;;;;;;3.60;2.50;;;30.10;99.90;;;;;;5005191;28;20530;-78
2022/08/02 14:47:47;;;;;;;3.80;2.17;;;30.10;99.90;;;;;;5009401;28;20466;-79
2022/08/02 14:50:16;;;;;;;2.63;2.10;;;30.20;99.90;;;;;;5009272;28;20504;-78
2022/08/02 14:52:43;;;;;;;2.57;2.23;;;30.20;99.90;;;;;;5009394;28;20861;-79
2022/08/02 14:55:10;;;;;;;2.30;2.10;;;30.30;99.90;;;;;;5008719;28;20458;-78
2022/08/02 14:57:37;;;;;;;5.73;2.40;;;30.40;99.90;;;;;;5009168;28;20465;-78
2022/08/02 15:00:05;;;;;;;2.30;2.10;;;30.40;99.90;;;;;;5008926;28;20845;-78
2022/08/02 15:02:32;;;;;;;7.10;2.37;;;30.40;99.90;;;;;;5008829;28;20514;-79
2022/08/02 15:04:59;;;;;;;2.33;2.13;;;30.50;99.90;;;;;;5008130;28;20471;-78
2022/08/02 15:07:27;;;;;;;6.90;2.17;;;30.60;99.90;;;;;;5008693;28;20455;-78
2022/08/02 15:09:54;;;;;;;5.23;2.03;;;30.70;99.90;;;;;;5008600;28;20490;-78
2022/08/02 15:12:21;;;;;;;4.27;2.67;;;30.70;99.90;;;;;;5008962;28;20483;-78
2022/08/02 15:14:47;;;;;;;2.70;2.50;;;30.80;99.90;;;;;;5008368;28;20535;-78
2022/08/02 15:17:14;;;;;;;2.77;2.40;;;30.90;99.90;;;;;;5008118;28;20466;-78
2022/08/02 15:19:41;;;;;;;6.03;2.40;;;30.90;99.90;;;;;;5007607;28;20473;-79
2022/08/02 15:22:08;;;;;;;3.20;2.50;;;31.00;99.90;;;;;;5008620;28;20493;-78
2022/08/02 15:24:36;;;;;;;5.37;2.37;;;31.10;99.90;;;;;;5008138;28;20454;-78
2022/08/02 15:27:09;;;;;;;2.70;2.03;;;31.10;99.90;;;;;;5008240;28;20895;-78
2022/08/02 15:29:35;;;;;;;3.37;2.30;;;31.10;99.90;;;;;;5008797;28;20504;-78
2022/08/02 15:32:03;;;;;;;4.33;2.50;;;31.20;99.90;;;;;;5008296;28;20505;-78
2022/08/02 15:34:30;;;;;;;3.67;2.00;;;31.20;99.90;;;;;;5007599;28;20461;-78
2022/08/02 15:36:56;;;;;;;3.97;2.10;;;31.20;99.90;;;;;;5008698;28;20458;-78
2022/08/02 15:39:24;;;;;;;3.07;2.20;;;31.20;99.90;;;;;;5007957;28;20473;-78
2022/08/02 15:41:52;;;;;;;4.73;2.00;;;31.30;99.90;;;;;;5008190;28;20478;-78
2022/08/02 15:44:19;;;;;;;3.20;2.30;;;31.30;99.90;;;;;;5007555;28;20461;-78
2022/08/02 15:46:45;;;;;;;2.40;2.20;;;31.30;99.90;;;;;;5008439;28;20462;-78
2022/08/02 15:49:12;;;;;;;4.17;2.30;;;31.40;99.90;;;;;;5008017;28;20477;-78
2022/08/02 15:51:39;;;;;;;3.37;2.23;;;31.30;99.80;;;;;;5008079;28;20510;-79
2022/08/02 15:54:06;;;;;;;7.53;2.70;;;31.30;99.20;;;;;;5007509;28;20573;-78
2022/08/02 15:56:33;;;;;;;4.53;2.33;;;31.40;99.60;;;;;;5008106;28;20497;-79
2022/08/02 15:59:01;;;;;;;2.60;2.17;;;31.40;99.80;;;;;;5006679;28;20967;-79
2022/08/02 16:01:28;;;;;;;3.20;2.23;;;31.40;98.90;;;;;;5007458;28;20593;-80
2022/08/02 16:03:54;;;;;;;5.00;2.17;;;31.40;98.30;;;;;;5007724;28;20461;-79
2022/08/02 16:06:21;;;;;;;6.80;2.10;;;31.40;98.10;;;;;;5007113;28;20466;-79
2022/08/02 16:08:48;;;;;;;2.70;2.27;;;31.50;98.00;;;;;;5008185;28;20462;-79
2022/08/02 16:11:16;;;;;;;5.03;2.43;;;31.50;97.90;;;;;;5008281;28;21085;-79
2022/08/02 16:13:52;;;;;;;5.67;3.03;;;31.60;98.90;;;;;;5009289;28;20513;-79
2022/08/02 16:16:22;;;;;;;4.67;2.30;;;31.60;97.20;;;;;;5008079;28;20533;-79
2022/08/02 16:18:49;;;;;;;3.60;2.17;;;31.60;98.10;;;;;;5007370;28;20447;-79
2022/08/02 16:21:16;;;;;;;3.20;2.30;;;31.70;97.60;;;;;;5009278;28;20487;-79
2022/08/02 16:23:43;;;;;;;2.83;2.17;;;31.80;97.60;;;;;;5011150;28;20463;-78
2022/08/02 16:26:10;;;;;;;2.43;1.97;;;31.80;97.10;;;;;;5006997;28;20469;-78
2022/08/02 16:28:37;;;;;;;5.00;2.17;;;31.80;97.00;;;;;;5007109;28;20465;-79
2022/08/02 16:31:03;;;;;;;2.10;1.87;;;31.80;96.70;;;;;;5007091;28;20503;-79
2022/08/02 16:33:32;;;;;;;2.83;2.47;;;31.80;96.70;;;;;;5006923;28;20462;-79
2022/08/02 16:35:58;;;;;;;1.90;1.80;;;31.90;96.80;;;;;;5007974;28;20467;-78
2022/08/02 16:38:27;;;;;;;2.53;2.03;;;31.90;96.20;;;;;;5008965;28;20551;-78
2022/08/02 16:40:54;;;;;;;3.93;1.63;;;31.90;97.00;;;;;;5008332;28;20478;-82
2022/08/02 16:43:21;;;;;;;2.17;1.97;;;31.90;94.90;;;;;;5007874;28;20463;-78
2022/08/02 16:45:48;;;;;;;2.67;2.20;;;31.90;95.40;;;;;;5007525;28;20459;-79
2022/08/02 16:48:15;;;;;;;2.50;1.90;;;31.80;96.70;;;;;;5009874;28;20544;-79
2022/08/02 16:50:43;;;;;;;3.30;2.07;;;31.90;95.80;;;;;;5008337;28;21015;-80
2022/08/02 16:53:10;;;;;;;2.60;1.93;;;31.80;94.60;;;;;;5010725;28;20463;-78
2022/08/02 16:55:37;;;;;;;3.57;1.97;;;31.90;94.40;;;;;;5008727;28;20465;-80
2022/08/02 16:58:04;;;;;;;2.60;1.87;;;31.80;93.70;;;;;;5007650;28;20469;-79